Time;durP1;ratioP1;P1;durP2;ratioP2;P2;SDS_P1;SDS_P2;PMS_P1;PMS_P2;Temp;Humidity;BMP_temperature;BMP_pressure;BME280_temperature;BME280_humidity;BME280_pressure;Samples;Min_cycle;Max_cycle;Signal;HPM_P1;HPM_P2
2023/04/14 00:00:21;;;;;;;21.25;13.10;;;;;;;;;;5012716;28;20050;-53
2023/04/14 00:02:54;;;;;;;16.88;11.07;;;;;;;;;;5016833;28;20480;-61
2023/04/14 00:05:22;;;;;;;20.73;12.88;;;;;;;;;;5019309;28;20049;-62
2023/04/14 00:07:49;;;;;;;23.77;14.23;;;;;;;;;;5017144;28;20119;-62
2023/04/14 00:10:23;;;;;;;16.42;10.80;;;;;;;;;;5015240;28;20054;-62
2023/04/14 00:12:50;;;;;;;22.17;14.38;;;;;;;;;;5019143;28;20188;-62
2023/04/14 00:15:24;;;;;;;17.00;10.27;;;;;;;;;;5017526;28;20051;-61
2023/04/14 00:17:52;;;;;;;16.25;9.88;;;;;;;;;;5016630;28;20053;-62
2023/04/14 00:20:19;;;;;;;15.73;10.07;;;;;;;;;;5018052;28;20050;-59
2023/04/14 00:22:52;;;;;;;16.17;10.80;;;;;;;;;;5014754;28;20136;-58
2023/04/14 00:25:20;;;;;;;21.98;11.10;;;;;;;;;;5017822;28;20052;-59
2023/04/14 00:27:54;;;;;;;20.05;13.25;;;;;;;;;;5016501;28;20501;-58
2023/04/14 00:30:33;;;;;;;23.45;14.85;;;;;;;;;;5010498;28;20060;-46
2023/04/14 00:33:08;;;;;;;21.83;13.63;;;;;;;;;;5012516;28;20049;-50
2023/04/14 00:35:35;;;;;;;28.63;15.95;;;;;;;;;;5015125;28;20057;-63
2023/04/14 00:38:02;;;;;;;27.25;14.60;;;;;;;;;;5014651;28;20827;-62
2023/04/14 00:40:37;;;;;;;23.70;14.57;;;;;;;;;;5010588;28;20051;-62
2023/04/14 00:43:04;;;;;;;29.35;15.70;;;;;;;;;;5014751;28;20489;-62
2023/04/14 00:45:45;;;;;;;28.77;17.13;;;;;;;;;;5013725;28;20046;-62
2023/04/14 00:48:13;;;;;;;17.38;11.48;;;;;;;;;;5010500;28;20049;-61
2023/04/14 00:50:48;;;;;;;22.23;14.13;;;;;;;;;;5013158;28;20046;-49
2023/04/14 00:53:16;;;;;;;28.13;16.65;;;;;;;;;;5018509;28;20461;-51
2023/04/14 00:55:43;;;;;;;25.27;16.85;;;;;;;;;;5010777;28;20050;-51
2023/04/14 00:58:16;;;;;;;26.38;15.95;;;;;;;;;;5012130;28;20060;-46
2023/04/14 01:00:45;;;;;;;26.20;15.15;;;;;;;;;;5011355;28;20041;-54
2023/04/14 01:03:19;;;;;;;31.25;16.25;;;;;;;;;;5009766;28;20042;-61
2023/04/14 01:05:46;;;;;;;27.23;16.23;;;;;;;;;;5010968;28;20051;-61
2023/04/14 01:08:13;;;;;;;29.95;16.25;;;;;;;;;;5010044;28;20149;-62
2023/04/14 01:11:10;;;;;;;21.73;14.60;;;;;;;;;;5005126;28;20049;-61
2023/04/14 01:13:46;;;;;;;27.70;14.27;;;;;;;;;;5010624;28;20046;-62
2023/04/14 01:16:28;;;;;;;26.95;14.35;;;;;;;;;;5009549;28;20524;-61
2023/04/14 01:19:15;;;;;;;34.08;18.65;;;;;;;;;;5008861;28;20051;-60
2023/04/14 01:21:51;;;;;;;40.05;22.05;;;;;;;;;;5010314;28;20049;-60
2023/04/14 01:24:21;;;;;;;43.10;24.58;;;;;;;;;;5014752;28;20080;-60
2023/04/14 01:27:21;;;;;;;23.35;14.18;;;;;;;;;;5010592;28;20046;-48
2023/04/14 01:30:00;;;;;;;24.55;14.05;;;;;;;;;;4975911;28;20477;-59
2023/04/14 01:32:42;;;;;;;22.48;13.23;;;;;;;;;;5009577;28;20081;-51
2023/04/14 01:35:16;;;;;;;37.90;18.25;;;;;;;;;;5010311;28;20704;-50
2023/04/14 01:37:52;;;;;;;35.80;19.48;;;;;;;;;;5009789;28;20136;-47
2023/04/14 01:40:20;;;;;;;29.70;16.83;;;;;;;;;;5008940;28;20156;-53
2023/04/14 01:42:58;;;;;;;41.28;20.13;;;;;;;;;;5007829;28;20056;-50
2023/04/14 01:45:27;;;;;;;36.97;19.20;;;;;;;;;;5008857;28;20081;-53
2023/04/14 01:48:00;;;;;;;31.75;17.00;;;;;;;;;;5007646;28;20607;-51
2023/04/14 01:50:28;;;;;;;39.55;18.25;;;;;;;;;;5009841;28;20049;-57
2023/04/14 01:53:02;;;;;;;32.97;18.42;;;;;;;;;;5009126;28;20737;-56
2023/04/14 01:55:38;;;;;;;38.25;20.40;;;;;;;;;;5010557;28;20053;-61
2023/04/14 01:58:12;;;;;;;42.50;24.00;;;;;;;;;;5008602;28;20523;-61
2023/04/14 02:00:40;;;;;;;53.05;24.80;;;;;;;;;;5008836;28;20104;-57
2023/04/14 02:03:08;;;;;;;55.97;26.13;;;;;;;;;;5008664;28;20593;-59
2023/04/14 02:05:42;;;;;;;62.13;28.05;;;;;;;;;;5009963;28;20535;-60
2023/04/14 02:08:12;;;;;;;38.28;20.42;;;;;;;;;;5009523;28;20077;-58
2023/04/14 02:10:46;;;;;;;30.45;15.43;;;;;;;;;;5011322;28;20047;-58
2023/04/14 02:13:14;;;;;;;28.63;15.88;;;;;;;;;;5011103;28;20483;-60
2023/04/14 02:15:49;;;;;;;52.17;24.42;;;;;;;;;;5009218;28;20053;-49
2023/04/14 02:18:18;;;;;;;53.63;24.92;;;;;;;;;;5007891;28;20073;-50
2023/04/14 02:20:46;;;;;;;27.23;15.95;;;;;;;;;;5014204;28;20054;-46
2023/04/14 02:23:20;;;;;;;32.90;17.17;;;;;;;;;;5009285;28;20049;-46
2023/04/14 02:26:00;;;;;;;41.95;19.77;;;;;;;;;;5014969;28;20176;-60
2023/04/14 02:28:36;;;;;;;30.05;15.18;;;;;;;;;;5013823;28;20056;-58
2023/04/14 02:31:15;;;;;;;27.83;15.38;;;;;;;;;;5015141;28;20057;-59
2023/04/14 02:33:53;;;;;;;35.45;18.27;;;;;;;;;;5015284;28;20038;-60
2023/04/14 02:36:23;;;;;;;33.85;18.33;;;;;;;;;;5013998;28;20856;-60
2023/04/14 02:39:00;;;;;;;34.25;18.35;;;;;;;;;;5017794;28;20052;-58
2023/04/14 02:41:29;;;;;;;54.75;26.58;;;;;;;;;;5014040;28;20898;-59
2023/04/14 02:44:15;;;;;;;41.42;20.55;;;;;;;;;;5018160;28;20124;-58
2023/04/14 02:46:55;;;;;;;44.78;23.08;;;;;;;;;;5015250;28;20057;-52
2023/04/14 02:49:23;;;;;;;44.05;19.58;;;;;;;;;;5015807;28;20757;-53
2023/04/14 02:51:57;;;;;;;50.72;25.35;;;;;;;;;;5014683;28;20556;-50
2023/04/14 02:54:24;;;;;;;29.95;16.27;;;;;;;;;;5013955;28;20184;-50
2023/04/14 02:56:58;;;;;;;25.83;14.98;;;;;;;;;;5018478;28;20042;-51
2023/04/14 02:59:25;;;;;;;31.23;17.80;;;;;;;;;;5016329;28;20044;-51
2023/04/14 03:01:53;;;;;;;38.60;19.63;;;;;;;;;;5014465;28;20058;-60
2023/04/14 03:04:29;;;;;;;30.15;16.63;;;;;;;;;;5012768;28;20054;-59
2023/04/14 03:06:56;;;;;;;38.78;19.25;;;;;;;;;;5012706;28;20077;-59
2023/04/14 03:09:30;;;;;;;35.60;17.02;;;;;;;;;;5014745;28;20049;-60
2023/04/14 03:11:58;;;;;;;38.35;19.40;;;;;;;;;;5018079;28;20048;-57
2023/04/14 03:14:26;;;;;;;42.65;21.83;;;;;;;;;;5013531;28;20049;-58
2023/04/14 03:17:00;;;;;;;50.22;25.10;;;;;;;;;;5016078;28;20045;-58
2023/04/14 03:19:28;;;;;;;57.10;27.33;;;;;;;;;;5015132;28;20049;-58
2023/04/14 03:22:03;;;;;;;63.47;29.67;;;;;;;;;;5016252;28;20144;-57
2023/04/14 03:24:38;;;;;;;62.03;27.35;;;;;;;;;;5015312;28;20136;-59
2023/04/14 03:27:14;;;;;;;53.15;25.10;;;;;;;;;;5015478;28;20048;-59
2023/04/14 03:29:50;;;;;;;65.10;30.83;;;;;;;;;;5012853;28;20522;-59
2023/04/14 03:32:26;;;;;;;67.10;31.58;;;;;;;;;;5016113;28;20677;-58
2023/04/14 03:34:54;;;;;;;57.20;27.20;;;;;;;;;;5016165;28;20060;-58
2023/04/14 03:37:22;;;;;;;58.88;29.55;;;;;;;;;;5012688;28;20119;-58
2023/04/14 03:40:00;;;;;;;58.85;30.13;;;;;;;;;;5015110;28;20128;-51
2023/04/14 03:42:28;;;;;;;63.85;30.73;;;;;;;;;;5014138;28;20140;-59
2023/04/14 03:45:03;;;;;;;55.95;28.20;;;;;;;;;;5013458;28;20042;-60
2023/04/14 03:47:30;;;;;;;;;;;;;;;;;;5010763;28;20050;-60
2023/04/14 03:50:05;;;;;;;52.60;25.80;;;;;;;;;;5015755;28;19961;-60
2023/04/14 03:52:34;;;;;;;59.63;27.70;;;;;;;;;;5013055;28;20186;-60
2023/04/14 03:55:05;;;;;;;52.15;26.10;;;;;;;;;;5013179;28;20064;-60
2023/04/14 03:57:39;;;;;;;54.17;26.65;;;;;;;;;;5014256;28;20057;-57
2023/04/14 04:00:07;;;;;;;;;;;;;;;;;;5013059;28;20093;-57
2023/04/14 04:02:41;;;;;;;56.78;28.73;;;;;;;;;;5016854;28;19932;-59
2023/04/14 04:05:10;;;;;;;55.22;27.60;;;;;;;;;;5006972;28;20054;-58
2023/04/14 04:07:45;;;;;;;58.00;30.02;;;;;;;;;;5015878;28;20133;-53
2023/04/14 04:10:13;;;;;;;56.88;28.25;;;;;;;;;;5015800;28;20136;-58
2023/04/14 04:12:41;;;;;;;59.00;29.15;;;;;;;;;;5015771;28;20061;-60
2023/04/14 04:15:15;;;;;;;58.40;29.60;;;;;;;;;;5016052;28;20041;-59
2023/04/14 04:17:42;;;;;;;;;;;;;;;;;;5016443;28;20133;-59
2023/04/14 04:20:16;;;;;;;48.13;23.00;;;;;;;;;;5014384;28;19925;-59
2023/04/14 04:22:44;;;;;;;56.10;28.48;;;;;;;;;;5014097;28;20519;-59
2023/04/14 04:25:12;;;;;;;63.88;31.20;;;;;;;;;;5010299;28;20809;-59
2023/04/14 04:27:46;;;;;;;64.18;31.58;;;;;;;;;;5016447;28;20049;-59
2023/04/14 04:30:14;;;;;;;62.75;30.65;;;;;;;;;;5016505;28;20157;-60
2023/04/14 04:32:54;;;;;;;61.63;32.13;;;;;;;;;;5013820;28;20088;-59
2023/04/14 04:35:23;;;;;;;68.32;34.25;;;;;;;;;;5013614;28;20045;-59
2023/04/14 04:37:59;;;;;;;64.22;33.60;;;;;;;;;;5017767;28;20548;-52
2023/04/14 04:40:26;;;;;;;68.15;33.20;;;;;;;;;;4998923;28;20058;-59
2023/04/14 04:42:54;;;;;;;65.47;34.50;;;;;;;;;;5013116;28;20097;-60
2023/04/14 04:45:46;;;;;;;65.63;31.83;;;;;;;;;;5011830;28;20049;-60
2023/04/14 04:48:13;;;;;;;64.20;31.40;;;;;;;;;;5013940;28;20042;-60
2023/04/14 04:50:47;;;;;;;55.25;31.98;;;;;;;;;;5012420;28;20053;-60
2023/04/14 04:53:15;;;;;;;57.17;31.13;;;;;;;;;;5014121;28;20509;-60
2023/04/14 04:55:42;;;;;;;56.92;32.95;;;;;;;;;;5013634;28;22382;-60
2023/04/14 04:58:16;;;;;;;59.35;32.00;;;;;;;;;;5013758;28;20453;-60
2023/04/14 05:00:43;;;;;;;56.95;30.30;;;;;;;;;;5015999;28;20140;-60
2023/04/14 05:03:17;;;;;;;57.75;28.77;;;;;;;;;;5016849;28;20489;-60
2023/04/14 05:05:44;;;;;;;55.85;28.48;;;;;;;;;;5011702;28;20405;-53
2023/04/14 05:08:11;;;;;;;52.25;30.10;;;;;;;;;;5014731;28;20129;-56
2023/04/14 05:10:45;;;;;;;54.47;30.10;;;;;;;;;;5012813;28;20124;-59
2023/04/14 05:13:12;;;;;;;52.30;29.70;;;;;;;;;;5015053;28;20055;-58
2023/04/14 05:15:45;;;;;;;56.70;32.25;;;;;;;;;;5014290;28;20049;-59
2023/04/14 05:18:13;;;;;;;56.50;31.17;;;;;;;;;;5003283;28;20729;-59
2023/04/14 05:20:40;;;;;;;48.58;26.83;;;;;;;;;;5002180;28;20057;-58
2023/04/14 05:23:14;;;;;;;52.67;28.55;;;;;;;;;;5015737;28;20402;-50
2023/04/14 05:25:41;;;;;;;;;;;;;;;;;;5012303;28;20046;-52
2023/04/14 05:28:15;;;;;;;49.38;26.45;;;;;;;;;;5012041;28;19929;-53
2023/04/14 05:30:49;;;;;;;49.05;28.08;;;;;;;;;;5011561;28;20057;-53
2023/04/14 05:33:26;;;;;;;46.10;26.73;;;;;;;;;;5009182;28;20053;-59
2023/04/14 05:35:53;;;;;;;45.83;26.42;;;;;;;;;;5010092;28;20057;-62
2023/04/14 05:38:20;;;;;;;47.40;26.75;;;;;;;;;;5010056;28;20613;-59
2023/04/14 05:40:55;;;;;;;43.85;25.92;;;;;;;;;;5013619;28;20060;-59
2023/04/14 05:43:22;;;;;;;42.47;25.77;;;;;;;;;;5013102;28;20127;-60
2023/04/14 05:45:57;;;;;;;44.75;25.48;;;;;;;;;;5014086;28;20053;-60
2023/04/14 05:48:26;;;;;;;46.92;28.35;;;;;;;;;;5013302;28;20058;-59
2023/04/14 05:50:54;;;;;;;51.45;30.02;;;;;;;;;;5012594;28;20137;-59
2023/04/14 05:53:28;;;;;;;46.45;25.42;;;;;;;;;;5012383;28;20152;-49
2023/04/14 05:55:56;;;;;;;35.50;20.92;;;;;;;;;;5014923;28;20061;-51
2023/04/14 05:58:30;;;;;;;41.65;24.25;;;;;;;;;;5004330;28;20057;-52
2023/04/14 06:00:57;;;;;;;49.42;27.45;;;;;;;;;;5016215;28;20144;-52
2023/04/14 06:03:24;;;;;;;48.33;26.98;;;;;;;;;;5017153;28;20084;-61
2023/04/14 06:05:58;;;;;;;47.10;25.95;;;;;;;;;;5013432;28;20543;-60
2023/04/14 06:08:25;;;;;;;38.95;25.30;;;;;;;;;;5014163;28;20068;-60
2023/04/14 06:10:58;;;;;;;55.00;31.48;;;;;;;;;;5018151;28;20054;-60
2023/04/14 06:13:33;;;;;;;51.00;31.42;;;;;;;;;;5015897;28;20600;-60
2023/04/14 06:16:02;;;;;;;46.15;27.65;;;;;;;;;;5015937;28;20057;-62
2023/04/14 06:18:30;;;;;;;40.22;25.27;;;;;;;;;;5015030;28;20045;-60
2023/04/14 06:21:04;;;;;;;44.92;26.52;;;;;;;;;;5014320;28;20053;-62
2023/04/14 06:23:31;;;;;;;42.80;27.13;;;;;;;;;;5016284;28;20046;-62
2023/04/14 06:26:05;;;;;;;37.83;25.55;;;;;;;;;;5016843;28;20038;-62
2023/04/14 06:28:32;;;;;;;38.85;26.10;;;;;;;;;;4996865;28;20136;-62
2023/04/14 06:31:00;;;;;;;42.63;28.08;;;;;;;;;;5005311;28;20604;-61
2023/04/14 06:33:40;;;;;;;48.20;29.63;;;;;;;;;;5017627;28;20050;-59
2023/04/14 06:36:07;;;;;;;41.72;24.92;;;;;;;;;;5014016;28;20050;-59
2023/04/14 06:38:42;;;;;;;40.97;27.70;;;;;;;;;;5014598;28;20050;-59
2023/04/14 06:41:09;;;;;;;45.80;27.92;;;;;;;;;;5016400;28;20045;-58
2023/04/14 06:43:36;;;;;;;47.15;26.67;;;;;;;;;;5012931;28;20596;-59
2023/04/14 06:46:10;;;;;;;54.80;27.13;;;;;;;;;;5016829;28;20127;-58
2023/04/14 06:48:37;;;;;;;;;;;;;;;;;;5012102;28;20558;-61
2023/04/14 06:51:12;;;;;;;54.13;29.60;;;;;;;;;;5013120;28;19920;-49
2023/04/14 06:53:39;;;;;;;56.50;31.45;;;;;;;;;;5016172;28;20052;-57
2023/04/14 06:56:07;;;;;;;62.08;31.08;;;;;;;;;;5014268;28;20077;-56
2023/04/14 06:58:41;;;;;;;57.95;29.80;;;;;;;;;;5010462;28;20046;-54
2023/04/14 07:01:08;;;;;;;88.13;31.08;;;;;;;;;;5012588;28;20048;-57
2023/04/14 07:03:42;;;;;;;66.53;31.70;;;;;;;;;;5018997;28;20105;-55
2023/04/14 07:06:10;;;;;;;78.93;27.92;;;;;;;;;;5011164;28;20053;-57
2023/04/14 07:08:39;;;;;;;60.85;31.23;;;;;;;;;;5013338;28;20049;-53
2023/04/14 07:11:13;;;;;;;55.78;32.47;;;;;;;;;;5010986;28;20314;-53
2023/04/14 07:13:40;;;;;;;50.50;29.55;;;;;;;;;;5013056;28;20505;-52
2023/04/14 07:16:15;;;;;;;47.35;29.23;;;;;;;;;;5016360;28;20508;-52
2023/04/14 07:18:42;;;;;;;58.30;30.75;;;;;;;;;;5014002;28;20056;-51
2023/04/14 07:21:09;;;;;;;94.07;29.23;;;;;;;;;;5010887;28;20428;-49
2023/04/14 07:23:43;;;;;;;48.08;28.58;;;;;;;;;;5011461;28;20073;-54
2023/04/14 07:26:10;;;;;;;50.70;26.65;;;;;;;;;;5014051;28;20176;-53
2023/04/14 07:28:44;;;;;;;81.28;27.35;;;;;;;;;;5013656;28;20053;-60
2023/04/14 07:31:17;;;;;;;63.65;27.50;;;;;;;;;;5012610;28;20049;-62
2023/04/14 07:33:52;;;;;;;45.40;24.02;;;;;;;;;;5013573;28;20073;-61
2023/04/14 07:36:26;;;;;;;52.15;26.92;;;;;;;;;;5008089;28;20057;-62
2023/04/14 07:39:01;;;;;;;45.80;25.73;;;;;;;;;;5016766;28;21503;-61
2023/04/14 07:41:28;;;;;;;39.92;25.25;;;;;;;;;;5015144;28;20054;-61
2023/04/14 07:44:02;;;;;;;48.38;25.85;;;;;;;;;;5013535;28;20574;-57
2023/04/14 07:46:30;;;;;;;36.45;23.77;;;;;;;;;;5014344;28;20056;-48
2023/04/14 07:48:58;;;;;;;48.10;24.13;;;;;;;;;;5014812;28;20535;-54
2023/04/14 07:51:32;;;;;;;40.65;24.38;;;;;;;;;;4998389;28;20057;-49
2023/04/14 07:53:59;;;;;;;42.03;25.73;;;;;;;;;;5015274;28;20049;-52
2023/04/14 07:56:33;;;;;;;44.35;24.30;;;;;;;;;;5015421;28;20497;-54
2023/04/14 07:59:00;;;;;;;42.53;24.92;;;;;;;;;;5012199;28;20050;-55
2023/04/14 08:01:28;;;;;;;40.90;25.33;;;;;;;;;;5014338;28;20056;-52
2023/04/14 08:04:02;;;;;;;37.25;23.75;;;;;;;;;;5015979;28;20124;-54
2023/04/14 08:06:30;;;;;;;41.45;24.08;;;;;;;;;;5013072;28;20409;-56
2023/04/14 08:08:57;;;;;;;35.58;22.92;;;;;;;;;;5011042;28;20047;-56
2023/04/14 08:11:31;;;;;;;37.10;24.63;;;;;;;;;;5015983;28;20081;-54
2023/04/14 08:13:58;;;;;;;36.95;23.80;;;;;;;;;;5010836;28;20382;-57
2023/04/14 08:16:35;;;;;;;44.22;25.90;;;;;;;;;;5015866;28;20050;-57
2023/04/14 08:19:03;;;;;;;39.08;24.30;;;;;;;;;;5014989;28;20069;-58
2023/04/14 08:21:31;;;;;;;43.25;24.48;;;;;;;;;;5012278;28;20053;-50
2023/04/14 08:24:05;;;;;;;42.10;24.73;;;;;;;;;;5015723;28;20041;-51
2023/04/14 08:26:32;;;;;;;;;;;;;;;;;;5014803;28;20096;-49
2023/04/14 08:28:59;;;;;;;39.22;24.52;;;;;;;;;;5013375;28;20113;-54
2023/04/14 08:31:40;;;;;;;40.63;25.00;;;;;;;;;;5007931;28;20057;-54
2023/04/14 08:34:08;;;;;;;40.33;25.00;;;;;;;;;;5015122;28;20768;-55
2023/04/14 08:36:55;;;;;;;39.72;25.25;;;;;;;;;;5012824;28;20064;-55
2023/04/14 08:39:22;;;;;;;43.85;23.88;;;;;;;;;;5010378;28;20473;-59
2023/04/14 08:41:57;;;;;;;40.55;25.42;;;;;;;;;;5010798;28;20164;-53
2023/04/14 08:44:30;;;;;;;40.80;24.90;;;;;;;;;;5015199;28;20041;-50
2023/04/14 08:46:58;;;;;;;50.00;24.83;;;;;;;;;;5009828;28;20084;-53
2023/04/14 08:49:45;;;;;;;40.80;24.15;;;;;;;;;;5011346;28;20084;-51
2023/04/14 08:52:12;;;;;;;37.38;23.65;;;;;;;;;;5011899;28;20041;-49
2023/04/14 08:54:47;;;;;;;43.60;23.95;;;;;;;;;;5010535;28;20740;-55
2023/04/14 08:57:17;;;;;;;36.63;23.80;;;;;;;;;;5008547;28;20164;-56
2023/04/14 08:59:45;;;;;;;35.58;22.33;;;;;;;;;;5012531;28;20045;-53
2023/04/14 09:02:19;;;;;;;38.47;22.67;;;;;;;;;;5010415;28;20572;-58
2023/04/14 09:04:48;;;;;;;36.30;22.63;;;;;;;;;;5009683;28;20608;-58
2023/04/14 09:07:16;;;;;;;36.42;21.48;;;;;;;;;;5009226;28;20053;-58
2023/04/14 09:09:50;;;;;;;38.03;21.48;;;;;;;;;;5009975;28;20488;-56
2023/04/14 09:12:17;;;;;;;35.70;20.08;;;;;;;;;;5012116;28;20487;-60
2023/04/14 09:14:45;;;;;;;33.33;21.63;;;;;;;;;;5013124;28;20133;-56
2023/04/14 09:17:20;;;;;;;35.28;20.05;;;;;;;;;;5012167;28;20509;-57
2023/04/14 09:19:47;;;;;;;34.20;19.65;;;;;;;;;;5009310;28;20153;-56
2023/04/14 09:22:42;;;;;;;29.08;18.80;;;;;;;;;;5010988;28;20050;-57
2023/04/14 09:25:10;;;;;;;29.98;18.17;;;;;;;;;;5010440;28;20132;-57
2023/04/14 09:27:48;;;;;;;32.05;18.20;;;;;;;;;;5011349;28;20115;-59
2023/04/14 09:30:27;;;;;;;31.83;18.42;;;;;;;;;;5012846;28;20548;-56
2023/04/14 09:33:07;;;;;;;35.65;19.35;;;;;;;;;;5010220;28;20105;-57
2023/04/14 09:35:46;;;;;;;32.10;18.98;;;;;;;;;;5011374;28;20042;-58
2023/04/14 09:38:32;;;;;;;30.17;17.52;;;;;;;;;;5009467;28;20045;-60
2023/04/14 09:41:06;;;;;;;29.92;18.08;;;;;;;;;;5013371;28;20049;-61
2023/04/14 09:43:40;;;;;;;28.77;18.25;;;;;;;;;;5010486;28;20056;-61
2023/04/14 09:46:08;;;;;;;27.08;16.13;;;;;;;;;;5014198;28;20076;-61
2023/04/14 09:48:54;;;;;;;25.02;16.33;;;;;;;;;;5010626;28;20481;-61
2023/04/14 09:51:23;;;;;;;25.17;16.15;;;;;;;;;;5011339;28;20056;-61
2023/04/14 09:54:04;;;;;;;28.17;15.18;;;;;;;;;;5010810;28;20064;-59
2023/04/14 09:56:45;;;;;;;27.00;17.13;;;;;;;;;;5009946;28;20490;-61
2023/04/14 09:59:12;;;;;;;27.52;16.55;;;;;;;;;;5009408;28;20042;-60
2023/04/14 10:01:47;;;;;;;27.75;15.05;;;;;;;;;;5010598;28;20464;-61
2023/04/14 10:04:23;;;;;;;26.38;15.52;;;;;;;;;;5008642;28;20580;-61
2023/04/14 10:07:00;;;;;;;22.48;14.18;;;;;;;;;;5011698;28;20059;-61
2023/04/14 10:09:28;;;;;;;26.73;15.25;;;;;;;;;;5012270;28;20054;-61
2023/04/14 10:12:08;;;;;;;22.23;13.38;;;;;;;;;;5011891;28;20050;-56
2023/04/14 10:14:36;;;;;;;21.98;14.05;;;;;;;;;;5014218;28;20108;-52
2023/04/14 10:17:10;;;;;;;24.35;14.20;;;;;;;;;;5000873;28;20745;-54
2023/04/14 10:19:48;;;;;;;;;;;;;;;;;;5010939;28;20416;-50
2023/04/14 10:22:22;;;;;;;27.60;12.60;;;;;;;;;;5005730;28;19964;-53
2023/04/14 10:24:49;;;;;;;24.73;12.15;;;;;;;;;;5010547;28;20543;-53
2023/04/14 10:27:20;;;;;;;18.67;11.55;;;;;;;;;;5012527;28;20518;-50
2023/04/14 10:30:02;;;;;;;36.25;13.15;;;;;;;;;;5010907;28;20775;-49
2023/04/14 10:32:37;;;;;;;20.05;12.30;;;;;;;;;;5010730;28;20148;-58
2023/04/14 10:35:12;;;;;;;24.77;13.88;;;;;;;;;;5012057;28;20077;-55
2023/04/14 10:37:40;;;;;;;20.27;12.18;;;;;;;;;;5010855;28;20050;-54
2023/04/14 10:40:14;;;;;;;25.67;13.80;;;;;;;;;;5009246;28;20046;-59
2023/04/14 10:42:51;;;;;;;23.58;13.60;;;;;;;;;;5010536;28;20066;-57
2023/04/14 10:45:26;;;;;;;26.15;12.77;;;;;;;;;;5011891;28;20045;-59
2023/04/14 10:47:55;;;;;;;26.67;13.02;;;;;;;;;;5016193;28;20462;-61
2023/04/14 10:50:30;;;;;;;21.17;12.30;;;;;;;;;;5016068;28;20138;-58
2023/04/14 10:52:58;;;;;;;26.77;13.20;;;;;;;;;;5012685;28;20053;-59
2023/04/14 10:55:44;;;;;;;28.15;13.15;;;;;;;;;;5016075;28;20587;-58
2023/04/14 10:58:22;;;;;;;27.75;12.05;;;;;;;;;;5017901;28;20077;-58
2023/04/14 11:00:56;;;;;;;23.23;12.40;;;;;;;;;;5017489;28;20046;-57
2023/04/14 11:03:23;;;;;;;;;;;;;;;;;;5015115;28;20060;-58
2023/04/14 11:05:52;;;;;;;26.50;12.07;;;;;;;;;;5014870;28;19932;-59
2023/04/14 11:08:33;;;;;;;25.48;11.60;;;;;;;;;;5012862;28;20520;-59
2023/04/14 11:11:01;;;;;;;25.98;11.80;;;;;;;;;;5011615;28;20568;-58
2023/04/14 11:13:37;;;;;;;28.67;12.55;;;;;;;;;;5014788;28;20086;-59
2023/04/14 11:16:05;;;;;;;31.02;12.00;;;;;;;;;;5011037;28;20320;-58
2023/04/14 11:19:00;;;;;;;31.92;12.60;;;;;;;;;;5012437;28;20060;-61
2023/04/14 11:21:48;;;;;;;27.50;11.95;;;;;;;;;;5011650;28;20045;-61
2023/04/14 11:24:22;;;;;;;30.23;12.48;;;;;;;;;;5013387;28;20050;-61
2023/04/14 11:26:53;;;;;;;31.88;12.98;;;;;;;;;;5009463;28;20496;-56
2023/04/14 11:29:21;;;;;;;26.85;12.45;;;;;;;;;;5008669;28;20164;-60
2023/04/14 11:32:05;;;;;;;28.27;13.07;;;;;;;;;;5014838;28;20144;-61
2023/04/14 11:34:33;;;;;;;;;;;;;;;;;;5015564;28;20140;-61
2023/04/14 11:37:08;;;;;;;32.83;14.00;;;;;;;;;;5014989;28;20295;-61
2023/04/14 11:39:35;;;;;;;27.80;12.07;;;;;;;;;;5009898;28;20493;-61
2023/04/14 11:42:03;;;;;;;28.45;14.15;;;;;;;;;;5013237;28;20052;-60
2023/04/14 11:44:37;;;;;;;29.40;13.38;;;;;;;;;;5011859;28;20042;-49
2023/04/14 11:47:04;;;;;;;;;;;;;;;;;;5011802;28;20560;-55
2023/04/14 11:49:38;;;;;;;35.13;15.45;;;;;;;;;;5015555;28;19921;-58
2023/04/14 11:52:05;;;;;;;;;;;;;;;;;;5014742;28;20471;-58
2023/04/14 11:54:36;;;;;;;31.85;13.45;;;;;;;;;;5014072;28;20284;-58
2023/04/14 11:57:16;;;;;;;30.83;14.68;;;;;;;;;;5014145;28;20049;-57
2023/04/14 11:59:46;;;;;;;27.65;15.05;;;;;;;;;;5004067;28;20056;-56
2023/04/14 12:02:21;;;;;;;29.27;14.57;;;;;;;;;;5014922;28;20050;-48
2023/04/14 12:04:49;;;;;;;31.63;14.73;;;;;;;;;;5015492;28;20144;-57
2023/04/14 12:07:25;;;;;;;31.60;15.68;;;;;;;;;;5013921;28;20366;-57
2023/04/14 12:09:52;;;;;;;33.05;17.48;;;;;;;;;;5012997;28;20046;-57
2023/04/14 12:12:20;;;;;;;35.58;16.52;;;;;;;;;;5013220;28;20046;-55
2023/04/14 12:14:54;;;;;;;31.17;15.70;;;;;;;;;;5010831;28;20050;-57
2023/04/14 12:17:22;;;;;;;30.75;15.73;;;;;;;;;;5015001;28;20140;-59
2023/04/14 12:19:56;;;;;;;32.72;16.70;;;;;;;;;;5017700;28;20104;-60
2023/04/14 12:22:25;;;;;;;30.75;16.63;;;;;;;;;;5012714;28;20068;-52
2023/04/14 12:24:52;;;;;;;34.30;16.92;;;;;;;;;;5011888;28;20112;-54
2023/04/14 12:27:26;;;;;;;38.45;16.25;;;;;;;;;;5012138;28;20042;-54
2023/04/14 12:29:54;;;;;;;33.42;15.73;;;;;;;;;;5016117;28;20501;-55
2023/04/14 12:32:21;;;;;;;37.30;17.60;;;;;;;;;;5013331;28;20054;-54
2023/04/14 12:34:58;;;;;;;31.02;17.80;;;;;;;;;;5013550;28;20416;-50
2023/04/14 12:37:25;;;;;;;33.53;17.00;;;;;;;;;;5013266;28;20505;-60
2023/04/14 12:40:00;;;;;;;35.88;17.27;;;;;;;;;;5011120;28;20510;-62
2023/04/14 12:42:29;;;;;;;31.45;16.80;;;;;;;;;;5014304;28;20050;-59
2023/04/14 12:45:04;;;;;;;34.75;16.10;;;;;;;;;;5008764;28;20046;-61
2023/04/14 12:47:34;;;;;;;32.83;17.27;;;;;;;;;;5008251;28;20165;-61
2023/04/14 12:50:26;;;;;;;33.70;16.48;;;;;;;;;;5013582;28;20046;-60
2023/04/14 12:52:54;;;;;;;30.08;16.05;;;;;;;;;;5012615;28;20054;-60
2023/04/14 12:55:29;;;;;;;31.52;16.23;;;;;;;;;;5012244;28;20152;-60
2023/04/14 12:57:57;;;;;;;31.25;17.70;;;;;;;;;;5011740;28;20060;-60
2023/04/14 13:00:31;;;;;;;40.63;17.65;;;;;;;;;;5010704;28;20054;-57
2023/04/14 13:02:58;;;;;;;33.55;18.20;;;;;;;;;;5011872;28;20140;-56
2023/04/14 13:05:32;;;;;;;33.35;17.27;;;;;;;;;;5013388;28;20749;-58
2023/04/14 13:07:59;;;;;;;34.67;18.27;;;;;;;;;;5012770;28;20508;-62
2023/04/14 13:10:26;;;;;;;35.38;18.67;;;;;;;;;;5012367;28;20060;-61
2023/04/14 13:13:00;;;;;;;31.52;17.65;;;;;;;;;;5012905;28;20046;-60
2023/04/14 13:15:27;;;;;;;33.60;17.58;;;;;;;;;;5010338;28;20559;-60
2023/04/14 13:18:21;;;;;;;34.20;18.45;;;;;;;;;;5010810;28;20136;-60
2023/04/14 13:20:54;;;;;;;28.90;17.25;;;;;;;;;;5013259;28;20122;-60
2023/04/14 13:23:28;;;;;;;31.50;16.33;;;;;;;;;;5011886;28;20492;-60
2023/04/14 13:25:55;;;;;;;;;;;;;;;;;;5012318;28;20398;-57
2023/04/14 13:28:37;;;;;;;36.88;16.80;;;;;;;;;;5010862;28;19925;-60
2023/04/14 13:31:21;;;;;;;33.25;18.20;;;;;;;;;;5010252;28;20053;-60
2023/04/14 13:33:49;;;;;;;30.10;16.27;;;;;;;;;;5007892;28;20101;-61
2023/04/14 13:36:23;;;;;;;33.10;17.38;;;;;;;;;;5011289;28;20069;-60
2023/04/14 13:38:50;;;;;;;32.10;17.00;;;;;;;;;;5008270;28;20057;-60
2023/04/14 13:41:18;;;;;;;28.60;15.73;;;;;;;;;;5012347;28;20141;-60
2023/04/14 13:43:52;;;;;;;31.02;16.35;;;;;;;;;;5013198;28;20057;-62
2023/04/14 13:46:19;;;;;;;31.33;17.45;;;;;;;;;;5012034;28;20089;-62
2023/04/14 13:48:53;;;;;;;30.95;15.95;;;;;;;;;;5010801;28;20536;-63
2023/04/14 13:51:22;;;;;;;31.85;16.83;;;;;;;;;;5013248;28;20053;-63
2023/04/14 13:53:49;;;;;;;28.30;16.80;;;;;;;;;;5009468;28;20054;-53
2023/04/14 13:56:24;;;;;;;30.73;17.05;;;;;;;;;;5010160;28;20572;-63
2023/04/14 13:58:52;;;;;;;30.23;16.55;;;;;;;;;;5012668;28;20474;-63
2023/04/14 14:01:26;;;;;;;29.50;17.00;;;;;;;;;;5009535;28;20144;-62
2023/04/14 14:04:01;;;;;;;28.42;16.92;;;;;;;;;;5012736;28;20046;-63
2023/04/14 14:06:36;;;;;;;32.42;17.35;;;;;;;;;;5010477;28;20500;-63
2023/04/14 14:09:03;;;;;;;31.35;17.05;;;;;;;;;;5007622;28;20077;-63
2023/04/14 14:11:43;;;;;;;29.73;17.60;;;;;;;;;;5010311;28;20049;-63
2023/04/14 14:14:17;;;;;;;30.77;17.85;;;;;;;;;;5015765;28;20050;-62
2023/04/14 14:16:44;;;;;;;27.55;16.80;;;;;;;;;;5012549;28;20511;-63
2023/04/14 14:19:18;;;;;;;30.52;17.70;;;;;;;;;;5013260;28;20045;-62
2023/04/14 14:21:45;;;;;;;33.35;18.52;;;;;;;;;;5016857;28;20053;-61
2023/04/14 14:24:19;;;;;;;30.02;16.90;;;;;;;;;;5016310;28;20060;-59
2023/04/14 14:26:46;;;;;;;33.75;17.30;;;;;;;;;;5019811;28;20164;-59
2023/04/14 14:29:13;;;;;;;32.85;17.95;;;;;;;;;;5019139;28;20580;-61
2023/04/14 14:31:59;;;;;;;30.77;19.02;;;;;;;;;;5017486;28;20049;-60
2023/04/14 14:34:33;;;;;;;31.30;18.20;;;;;;;;;;5018914;28;20045;-60
2023/04/14 14:37:08;;;;;;;37.63;19.88;;;;;;;;;;5018861;28;20050;-60
2023/04/14 14:39:35;;;;;;;35.40;19.92;;;;;;;;;;5016683;28;20409;-62
2023/04/14 14:42:03;;;;;;;39.33;21.50;;;;;;;;;;5013099;28;20050;-61
2023/04/14 14:44:37;;;;;;;37.65;20.92;;;;;;;;;;5017411;28;20528;-61
2023/04/14 14:47:05;;;;;;;41.58;21.42;;;;;;;;;;5017545;28;20485;-61
2023/04/14 14:49:49;;;;;;;42.88;21.05;;;;;;;;;;5019275;28;20056;-61